Time;durP1;ratioP1;P1;durP2;ratioP2;P2;SDS_P1;SDS_P2;PMS_P1;PMS_P2;Temp;Humidity;BMP_temperature;BMP_pressure;BME280_temperature;BME280_humidity;BME280_pressure;Samples;Min_cycle;Max_cycle;Signal;HPM_P1;HPM_P2
2022/09/04 00:00:33;;;;;;;;;;;12.70;99.90;;;;;;6105614;23;19912;-83
2022/09/04 00:03:24;;;;;;;;;;;12.60;99.90;;;;;;6130519;23;19981;-84
2022/09/04 00:05:52;;;;;;;;;;;12.60;99.90;;;;;;6156743;23;20357;-84
2022/09/04 00:08:23;;;;;;;;;;;12.60;99.90;;;;;;6130426;23;19904;-84
2022/09/04 00:10:49;;;;;;;;;;;12.50;99.90;;;;;;6130458;23;19908;-83
2022/09/04 00:13:27;;;;;;;;;;;12.50;99.90;;;;;;6130483;23;19901;-83
2022/09/04 00:16:00;;;;;;;;;;;12.50;99.90;;;;;;6130733;23;19905;-84
2022/09/04 00:18:32;;;;;;;;;;;12.50;99.90;;;;;;6130316;23;19904;-83
2022/09/04 00:21:09;;;;;;;;;;;12.50;99.90;;;;;;6156356;23;19912;-84
2022/09/04 00:23:49;;;;;;;;;;;12.50;99.90;;;;;;6129797;23;19955;-84
2022/09/04 00:26:21;;;;;;;;;;;12.50;99.90;;;;;;6154718;23;19911;-84
2022/09/04 00:28:54;;;;;;;;;;;12.50;99.90;;;;;;6105881;23;19905;-83
2022/09/04 00:31:24;;;;;;;;;;;12.50;99.90;;;;;;6129210;23;19909;-83
2022/09/04 00:33:53;;;;;;;;;;;12.50;99.90;;;;;;6129082;23;20317;-83
2022/09/04 00:36:21;;;;;;;;;;;12.50;99.90;;;;;;6129655;23;20230;-84
2022/09/04 00:38:49;;;;;;;;;;;12.40;99.90;;;;;;6129937;23;20078;-83
2022/09/04 00:41:23;;;;;;;;;;;12.40;99.90;;;;;;6130128;23;19947;-84
2022/09/04 00:44:00;;;;;;;;;;;12.40;99.90;;;;;;6129569;23;20376;-83
2022/09/04 00:46:28;;;;;;;;;;;12.30;99.90;;;;;;6129909;23;19905;-84
2022/09/04 00:49:12;;;;;;;;;;;12.40;99.90;;;;;;6156170;23;19987;-83
2022/09/04 00:51:42;;;;;;;;;;;12.30;99.90;;;;;;6105783;23;19947;-83
2022/09/04 00:54:30;;;;;;;;;;;12.30;99.90;;;;;;6105736;23;19998;-83
2022/09/04 00:57:12;;;;;;;;;;;12.30;99.90;;;;;;6130543;23;19955;-83
2022/09/04 00:59:41;;;;;;;;;;;12.30;99.90;;;;;;6105516;23;19905;-84
2022/09/04 01:02:15;;;;;;;;;;;12.40;99.90;;;;;;6130346;23;19963;-84
2022/09/04 01:05:01;;;;;;;;;;;12.40;99.90;;;;;;6130448;23;19905;-84
2022/09/04 01:07:37;;;;;;;;;;;12.40;99.90;;;;;;6104660;23;19909;-84
2022/09/04 01:10:14;;;;;;;;;;;12.50;99.90;;;;;;6129932;23;19956;-84
2022/09/04 01:12:48;;;;;;;;;;;12.50;99.90;;;;;;6156150;23;19904;-83
2022/09/04 01:15:14;;;;;;;;;;;12.50;99.90;;;;;;6129710;23;20364;-84
2022/09/04 01:17:58;;;;;;;;;;;12.50;99.90;;;;;;6129906;23;19983;-84
2022/09/04 01:20:43;;;;;;;;;;;12.40;99.90;;;;;;6154345;23;19953;-84
2022/09/04 01:23:23;;;;;;;;;;;12.40;99.90;;;;;;6130885;23;19931;-84
2022/09/04 01:26:08;;;;;;;;;;;12.40;99.90;;;;;;6156187;23;20280;-83
2022/09/04 01:28:39;;;;;;;;;;;12.50;99.90;;;;;;6158641;23;19908;-84
2022/09/04 01:31:23;;;;;;;;;;;12.40;99.90;;;;;;6131611;23;19947;-84
2022/09/04 01:34:07;;;;;;;;;;;12.40;99.90;;;;;;6107468;23;19936;-84
2022/09/04 01:36:50;;;;;;;;;;;12.30;99.90;;;;;;6107513;23;19912;-84
2022/09/04 01:39:17;;;;;;;;;;;12.30;99.90;;;;;;6132122;23;19951;-84
2022/09/04 01:41:47;;;;;;;;;;;12.20;99.90;;;;;;6131141;23;20284;-83
2022/09/04 01:44:13;;;;;;;;;;;12.20;99.90;;;;;;6156080;23;19909;-84
2022/09/04 01:46:51;;;;;;;;;;;12.20;99.90;;;;;;6131666;23;19980;-84
2022/09/04 01:49:23;;;;;;;;;;;12.30;99.90;;;;;;6131642;23;19904;-84
2022/09/04 01:51:52;;;;;;;;;;;12.30;99.90;;;;;;6131814;23;20367;-84
2022/09/04 01:54:36;;;;;;;;;;;12.20;99.90;;;;;;6131919;23;19912;-84
2022/09/04 01:57:20;;;;;;;;;;;12.30;99.90;;;;;;6132337;23;19915;-84
2022/09/04 01:59:52;;;;;;;;;;;12.30;99.90;;;;;;6107716;23;19912;-84
2022/09/04 02:02:30;;;;;;;;;;;12.30;99.90;;;;;;6131781;23;19952;-83
2022/09/04 02:05:24;;;;;;;;;;;12.30;99.90;;;;;;6156123;23;19911;-84
2022/09/04 02:07:57;;;;;;;;;;;12.30;99.90;;;;;;6107070;23;19928;-84
2022/09/04 02:10:38;;;;;;;;;;;12.30;99.90;;;;;;6131334;23;19924;-84
2022/09/04 02:13:23;;;;;;;;;;;12.30;99.90;;;;;;6131154;23;20513;-83
2022/09/04 02:15:48;;;;;;;;;;;12.20;99.90;;;;;;6106533;23;19905;-82
2022/09/04 02:18:14;;;;;;;;;;;12.10;99.90;;;;;;6132042;23;19987;-84
2022/09/04 02:20:45;;;;;;;;;;;12.10;99.90;;;;;;6107422;23;19953;-84
2022/09/04 02:23:19;;;;;;;;;;;12.10;99.90;;;;;;6131646;23;19932;-84
2022/09/04 02:25:52;;;;;;;;;;;12.00;99.90;;;;;;6107140;23;19905;-84
2022/09/04 02:28:36;;;;;;;;;;;12.00;99.90;;;;;;6131794;23;20281;-84
2022/09/04 02:31:20;;;;;;;;;;;11.90;99.90;;;;;;6131297;23;20241;-84
2022/09/04 02:33:52;;;;;;;;;;;11.90;99.90;;;;;;6131005;23;19915;-84
2022/09/04 02:36:33;;;;;;;;;;;11.90;99.90;;;;;;6156284;23;19932;-84
2022/09/04 02:38:58;;;;;;;;;;;11.90;99.90;;;;;;6131409;23;20294;-84
2022/09/04 02:41:30;;;;;;;;;;;11.80;99.90;;;;;;6106806;23;19935;-84
2022/09/04 02:44:12;;;;;;;;;;;11.90;99.90;;;;;;6131338;23;19940;-84
2022/09/04 02:46:46;;;;;;;;;;;11.90;99.90;;;;;;6157628;23;19905;-84
2022/09/04 02:49:21;;;;;;;;;;;11.90;99.90;;;;;;6106186;23;20351;-84
2022/09/04 02:52:00;;;;;;;;;;;11.90;99.90;;;;;;6131251;23;19909;-86
2022/09/04 02:54:38;;;;;;;;;;;11.90;99.90;;;;;;6131077;23;19905;-86
2022/09/04 02:57:27;;;;;;;;;;;11.90;99.90;;;;;;6106846;23;19911;-84
2022/09/04 03:00:12;;;;;;;;;;;11.80;99.90;;;;;;6130608;23;19905;-84
2022/09/04 03:03:02;;;;;;;;;;;11.80;99.90;;;;;;6130895;23;19958;-84
2022/09/04 03:05:30;;;;;;;;;;;11.80;99.90;;;;;;6130545;23;19915;-84
2022/09/04 03:08:14;;;;;;;;;;;11.80;99.90;;;;;;6155627;23;19912;-84
2022/09/04 03:10:46;;;;;;;;;;;11.80;99.90;;;;;;6106547;23;20360;-84
2022/09/04 03:13:25;;;;;;;;;;;11.80;99.90;;;;;;6106525;23;19908;-84
2022/09/04 03:16:02;;;;;;;;;;;11.80;99.90;;;;;;6131381;23;19911;-84
2022/09/04 03:18:37;;;;;;;;;;;11.70;99.90;;;;;;6131075;23;19911;-84
2022/09/04 03:21:09;;;;;;;;;;;11.70;99.90;;;;;;6106784;23;19915;-84
2022/09/04 03:23:37;;;;;;;;;;;11.70;99.90;;;;;;6155074;23;19943;-84
2022/09/04 03:26:09;;;;;;;;;;;11.70;99.90;;;;;;6131083;23;19908;-84
2022/09/04 03:28:53;;;;;;;;;;;11.70;99.90;;;;;;6106788;23;19912;-84
2022/09/04 03:31:19;;;;;;;;;;;11.70;99.90;;;;;;6106210;23;19943;-84
2022/09/04 03:33:47;;;;;;;;;;;11.70;99.90;;;;;;6106628;23;19912;-84
2022/09/04 03:36:17;;;;;;;;;;;11.60;99.90;;;;;;6155837;23;19935;-83
2022/09/04 03:39:01;;;;;;;;;;;11.70;99.90;;;;;;6131177;23;19989;-84
2022/09/04 03:41:29;;;;;;;;;;;11.60;99.90;;;;;;6155769;23;19904;-84
2022/09/04 03:43:58;;;;;;;;;;;11.70;99.90;;;;;;6130387;23;19939;-83
2022/09/04 03:46:42;;;;;;;;;;;11.70;99.90;;;;;;6130797;23;19915;-84
2022/09/04 03:49:15;;;;;;;;;;;11.70;99.90;;;;;;6106852;23;19904;-84
2022/09/04 03:51:51;;;;;;;;;;;11.70;99.90;;;;;;6130895;23;19959;-84
2022/09/04 03:54:16;;;;;;;;;;;11.70;99.90;;;;;;6129540;23;20374;-84
2022/09/04 03:56:42;;;;;;;;;;;11.70;99.90;;;;;;6130438;23;19952;-84
2022/09/04 03:59:18;;;;;;;;;;;11.70;99.90;;;;;;6106310;23;19947;-84
2022/09/04 04:01:48;;;;;;;;;;;11.70;99.90;;;;;;6130870;23;19932;-84
2022/09/04 04:04:36;;;;;;;;;;;11.80;99.90;;;;;;6130057;23;19915;-84
2022/09/04 04:07:11;;;;;;;;;;;11.80;99.90;;;;;;6130241;23;19931;-84
2022/09/04 04:09:46;;;;;;;;;;;11.70;99.90;;;;;;6130554;23;20246;-84
2022/09/04 04:12:31;;;;;;;;;;;11.60;99.90;;;;;;6130529;23;19932;-84
2022/09/04 04:15:03;;;;;;;;;;;11.60;99.90;;;;;;6129955;23;19979;-84
2022/09/04 04:17:46;;;;;;;;;;;11.60;99.90;;;;;;6130454;23;19905;-84
2022/09/04 04:20:21;;;;;;;;;;;11.60;99.90;;;;;;6130236;23;20211;-84
2022/09/04 04:23:06;;;;;;;;;;;11.60;99.90;;;;;;6105485;23;19905;-84
2022/09/04 04:25:38;;;;;;;;;;;11.50;99.90;;;;;;6105437;23;19911;-84
2022/09/04 04:28:03;;;;;;;;;;;11.60;99.90;;;;;;6156062;23;20643;-84
2022/09/04 04:30:35;;;;;;;;;;;11.60;99.90;;;;;;6129209;23;19912;-84
2022/09/04 04:33:01;;;;;;;;;;;11.60;99.90;;;;;;6129573;23;19912;-84
2022/09/04 04:35:47;;;;;;;;;;;11.60;99.90;;;;;;6129901;23;19904;-84
2022/09/04 04:38:31;;;;;;;;;;;11.60;99.90;;;;;;6130088;23;19911;-84
2022/09/04 04:40:57;;;;;;;;;;;11.70;99.90;;;;;;6105389;23;19912;-84
2022/09/04 04:43:32;;;;;;;;;;;11.80;99.90;;;;;;6129540;23;19901;-84
2022/09/04 04:46:16;;;;;;;;;;;12.00;99.90;;;;;;6154253;23;19905;-86
2022/09/04 04:48:48;;;;;;;;;;;12.00;99.90;;;;;;6129978;23;19912;-86
2022/09/04 04:51:39;;;;;;;;;;;12.00;99.90;;;;;;6105677;23;19918;-86
2022/09/04 04:54:23;;;;;;;;;;;12.10;99.90;;;;;;6130188;23;19975;-86
2022/09/04 04:56:52;;;;;;;;;;;12.10;99.90;;;;;;6106269;23;19904;-86
2022/09/04 04:59:36;;;;;;;;;;;12.10;99.90;;;;;;6155044;23;19924;-86
2022/09/04 05:02:15;;;;;;;;;;;12.10;99.90;;;;;;6106032;23;19911;-86
2022/09/04 05:04:49;;;;;;;;;;;12.10;99.90;;;;;;6129795;23;19904;-87
2022/09/04 05:07:30;;;;;;;;;;;12.20;99.90;;;;;;6130637;23;19904;-86
2022/09/04 05:09:58;;;;;;;;;;;12.20;99.90;;;;;;6131008;23;19908;-86
2022/09/04 05:12:33;;;;;;;;;;;12.30;99.90;;;;;;6130578;23;19905;-86
2022/09/04 05:18:32;;;;;;;;;;;12.50;99.90;;;;;;6156430;23;19912;-86
2022/09/04 05:21:04;;;;;;;;;;;12.70;99.90;;;;;;6130649;23;20313;-87
2022/09/04 05:23:40;;;;;;;;;;;12.80;99.90;;;;;;6103946;23;19905;-86
2022/09/04 05:26:09;;;;;;;;;;;13.00;99.90;;;;;;6130440;23;19908;-86
2022/09/04 05:28:47;;;;;;;;;;;13.10;99.90;;;;;;6105279;23;20224;-86
2022/09/04 05:31:32;;;;;;;;;;;13.30;99.90;;;;;;6128651;23;19909;-86
2022/09/04 05:34:11;;;;;;;;;;;13.40;99.90;;;;;;6128272;23;19912;-86
2022/09/04 05:36:44;;;;;;;;;;;13.50;99.90;;;;;;6130099;23;19909;-86
2022/09/04 05:39:29;;;;;;;;;;;13.60;99.90;;;;;;6129911;23;19904;-86
2022/09/04 05:42:07;;;;;;;;;;;13.70;99.90;;;;;;6154361;23;19991;-86
2022/09/04 05:44:53;;;;;;;;;;;13.80;99.90;;;;;;6130113;23;19983;-86
2022/09/04 05:47:19;;;;;;;;;;;13.80;99.90;;;;;;6130027;23;19987;-87
2022/09/04 05:49:44;;;;;;;;;;;13.90;99.90;;;;;;6105373;23;19962;-87
2022/09/04 05:52:10;;;;;;;;;;;13.80;99.90;;;;;;6130308;23;20292;-87
2022/09/04 05:54:45;;;;;;;;;;;13.80;99.90;;;;;;6105731;23;19907;-87
2022/09/04 05:57:19;;;;;;;;;;;13.80;99.90;;;;;;6106026;23;19991;-86
2022/09/04 06:00:01;;;;;;;;;;;13.80;99.90;;;;;;6105511;23;19912;-86
2022/09/04 06:02:54;;;;;;;;;;;13.80;99.90;;;;;;6130638;23;19904;-86
2022/09/04 06:05:35;;;;;;;;;;;13.80;99.90;;;;;;6106064;23;19904;-87
2022/09/04 06:08:10;;;;;;;;;;;13.80;99.90;;;;;;6106098;23;20617;-86
2022/09/04 06:10:54;;;;;;;;;;;13.70;99.90;;;;;;6132104;23;19908;-87
2022/09/04 06:17:07;;;;;;;;;;;13.80;99.90;;;;;;6157485;23;20048;-86
2022/09/04 06:19:38;;;;;;;;;;;13.90;99.90;;;;;;6106818;23;19909;-87
2022/09/04 06:22:17;;;;;;;;;;;14.00;99.90;;;;;;6156609;23;19908;-86
2022/09/04 06:24:43;;;;;;;;;;;14.00;99.90;;;;;;6131671;23;19916;-86
2022/09/04 06:27:09;;;;;;;;;;;14.20;99.90;;;;;;6107151;23;20237;-86
2022/09/04 06:29:34;;;;;;;;;;;14.20;99.90;;;;;;6106390;23;20198;-86
2022/09/04 06:32:10;;;;;;;;;;;14.40;99.90;;;;;;6130607;23;19958;-86
2022/09/04 06:34:44;;;;;;;;;;;14.50;99.90;;;;;;6131369;23;19926;-87
2022/09/04 06:37:42;;;;;;;;;;;14.60;99.90;;;;;;6130835;23;19955;-86
2022/09/04 06:40:34;;;;;;;;;;;14.80;99.90;;;;;;6089829;23;19987;-86
2022/09/04 06:43:06;;;;;;;;;;;14.90;99.90;;;;;;6104866;23;20057;-86
2022/09/04 06:45:41;;;;;;;;;;;15.00;99.90;;;;;;6106221;23;19916;-86
2022/09/04 06:48:21;;;;;;;;;;;15.10;99.90;;;;;;6155485;23;19904;-86
2022/09/04 06:54:15;;;;;;;;;;;15.30;99.90;;;;;;6156892;23;19911;-86
2022/09/04 06:56:49;;;;;;;;;;;15.40;99.90;;;;;;6106804;23;19983;-86
2022/09/04 06:59:40;;;;;;;;;;;15.50;99.90;;;;;;6130793;23;19939;-86
2022/09/04 07:02:18;;;;;;;;;;;15.60;99.90;;;;;;6131067;23;19904;-86
2022/09/04 07:04:47;;;;;;;;;;;15.70;99.90;;;;;;6155632;23;19905;-86
2022/09/04 07:07:20;;;;;;;;;;;15.80;99.90;;;;;;6130454;23;20318;-86
2022/09/04 07:09:58;;;;;;;;;;;15.90;99.90;;;;;;6130968;23;19904;-86
2022/09/04 07:12:32;;;;;;;;;;;15.90;99.90;;;;;;6129882;23;19908;-86
2022/09/04 07:15:16;;;;;;;;;;;16.00;99.90;;;;;;6129825;23;19908;-86
2022/09/04 07:18:01;;;;;;;;;;;16.10;99.90;;;;;;6130241;23;19908;-86
2022/09/04 07:20:26;;;;;;;;;;;16.10;99.90;;;;;;6107403;23;20253;-86
2022/09/04 07:23:01;;;;;;;;;;;16.10;99.90;;;;;;6130359;23;19905;-86
2022/09/04 07:25:33;;;;;;;;;;;16.20;99.90;;;;;;6130483;23;19994;-86
2022/09/04 07:28:22;;;;;;;;;;;16.30;99.90;;;;;;6130763;23;19932;-86
2022/09/04 07:30:48;;;;;;;;;;;16.40;99.90;;;;;;6155423;23;19995;-86
2022/09/04 07:33:23;;;;;;;;;;;16.50;99.90;;;;;;6156406;23;19940;-87
2022/09/04 07:35:53;;;;;;;;;;;16.60;99.90;;;;;;6155355;23;20318;-87
2022/09/04 07:38:27;;;;;;;;;;;16.70;99.90;;;;;;6130753;23;19942;-87
2022/09/04 07:41:09;;;;;;;;;;;16.80;99.90;;;;;;6130994;23;19983;-87
2022/09/04 07:44:06;;;;;;;;;;;16.90;99.90;;;;;;6130617;23;19915;-86
2022/09/04 07:46:41;;;;;;;;;;;17.00;99.90;;;;;;6106636;23;19959;-86
2022/09/04 07:49:11;;;;;;;;;;;17.00;99.90;;;;;;6130872;23;20602;-86
2022/09/04 07:51:51;;;;;;;;;;;17.00;99.90;;;;;;6130299;23;19911;-86
2022/09/04 07:54:36;;;;;;;;;;;17.00;99.90;;;;;;6130430;23;19928;-86
2022/09/04 07:57:04;;;;;;;;;;;17.10;99.90;;;;;;6129845;23;19908;-87
2022/09/04 07:59:42;;;;;;;;;;;17.20;99.90;;;;;;6129514;23;19905;-87
2022/09/04 08:02:26;;;;;;;;;;;17.30;99.90;;;;;;6105186;23;20321;-86
2022/09/04 08:05:06;;;;;;;;;;;17.40;99.90;;;;;;6105081;23;19912;-87
2022/09/04 08:07:32;;;;;;;;;;;17.40;99.90;;;;;;6130553;23;19909;-86
2022/09/04 08:10:04;;;;;;;;;;;17.40;99.90;;;;;;6106034;23;20465;-86
2022/09/04 08:12:43;;;;;;;;;;;17.50;99.90;;;;;;6156443;23;19904;-86
2022/09/04 08:15:20;;;;;;;;;;;17.50;99.90;;;;;;6130108;23;19904;-86
2022/09/04 08:17:55;;;;;;;;;;;17.60;99.90;;;;;;6130513;23;19927;-86
2022/09/04 08:20:39;;;;;;;;;;;17.80;99.90;;;;;;6106257;23;19911;-86
2022/09/04 08:23:24;;;;;;;;;;;17.80;99.90;;;;;;6105746;23;19909;-86
2022/09/04 08:25:53;;;;;;;;;;;18.00;99.90;;;;;;6105827;23;19987;-86
2022/09/04 08:28:55;;;;;;;;;;;18.20;99.90;;;;;;6154964;23;20290;-86
2022/09/04 08:31:34;;;;;;;;;;;18.30;99.90;;;;;;6080829;23;19909;-86
2022/09/04 08:34:28;;;;;;;;;;;18.60;99.90;;;;;;6129641;23;19967;-87
2022/09/04 08:37:14;;;;;;;;;;;18.80;99.90;;;;;;6130459;23;19908;-87
2022/09/04 08:39:46;;;;;;;;;;;19.00;99.90;;;;;;6085386;23;19905;-86
2022/09/04 08:42:50;;;;;;;;;;;19.10;99.90;;;;;;6106148;23;19904;-86
2022/09/04 08:45:16;;;;;;;;;;;19.20;99.90;;;;;;6070667;23;19905;-86
2022/09/04 08:48:00;;;;;;;;;;;19.20;99.90;;;;;;6094086;23;20318;-86
2022/09/04 08:50:33;;;;;;;;;;;19.30;99.90;;;;;;6070030;23;20421;-87
2022/09/04 08:53:18;;;;;;;;;;;19.60;99.90;;;;;;6070733;23;19990;-86
2022/09/04 08:55:46;;;;;;;;;;;21.50;99.90;;;;;;6077893;23;19909;-86
2022/09/04 08:58:38;;;;;;;;;;;23.60;99.90;;;;;;6130207;23;19912;-87
2022/09/04 09:01:23;;;;;;;;;;;25.10;99.90;;;;;;6130552;23;19983;-86
2022/09/04 09:04:07;;;;;;;;;;;26.60;99.90;;;;;;6129729;23;19983;-87
2022/09/04 09:06:52;;;;;;;;;;;27.20;99.90;;;;;;6105477;23;19912;-87
2022/09/04 09:09:24;;;;;;;;;;;27.10;99.90;;;;;;6129599;23;19935;-87
2022/09/04 09:11:59;;;;;;;;;;;27.80;99.90;;;;;;6129878;23;19909;-87
2022/09/04 09:14:43;;;;;;;;;;;28.50;99.90;;;;;;6155957;23;19987;-87
2022/09/04 09:17:11;;;;;;;;;;;29.20;99.90;;;;;;6130278;23;19954;-87
2022/09/04 09:20:02;;;;;;;;;;;29.20;99.90;;;;;;6105298;23;19963;-87
2022/09/04 09:22:27;;;;;;;;;;;29.10;99.90;;;;;;6104459;23;19909;-87
2022/09/04 09:25:13;;;;;;;;;;;28.80;99.90;;;;;;6128441;23;19916;-87
2022/09/04 09:27:58;;;;;;;;;;;28.00;99.90;;;;;;6108063;23;19948;-87
2022/09/04 09:30:24;;;;;;;;;;;28.20;99.90;;;;;;6104543;23;19999;-86
2022/09/04 09:33:14;;;;;;;;;;;26.40;99.90;;;;;;6128719;23;19909;-87
2022/09/04 09:35:54;;;;;;;;;;;26.20;99.90;;;;;;6129210;23;19904;-87
2022/09/04 09:38:35;;;;;;;;;;;26.30;99.90;;;;;;6129030;23;19953;-87
2022/09/04 09:41:29;;;;;;;;;;;26.10;99.90;;;;;;6104816;23;19987;-87
2022/09/04 09:44:14;;;;;;;;;;;25.70;99.90;;;;;;6105956;23;19905;-87
2022/09/04 10:01:29;;;;;;;4.78;4.28;;;26.40;99.90;;;;;;5103015;27;20364;-87
2022/09/04 10:04:17;;;;;;;4.00;3.63;;;26.40;99.90;;;;;;5124261;28;20042;-86
2022/09/04 10:06:51;;;;;;;3.78;2.60;;;26.60;99.90;;;;;;5091136;28;20046;-86
2022/09/04 10:09:39;;;;;;;5.50;2.47;;;26.80;99.90;;;;;;5086013;28;20376;-87
2022/09/04 10:12:42;;;;;;;3.75;3.03;;;26.80;99.90;;;;;;5104203;28;20349;-86
2022/09/04 10:15:15;;;;;;;4.78;3.42;;;26.60;99.90;;;;;;5098589;28;20043;-86
2022/09/04 10:18:05;;;;;;;4.22;3.28;;;25.80;99.90;;;;;;5106385;28;20049;-86
2022/09/04 10:20:45;;;;;;;3.88;3.05;;;26.20;99.90;;;;;;5097261;28;20141;-86
2022/09/04 10:23:30;;;;;;;6.57;4.07;;;27.30;99.90;;;;;;5095420;28;20671;-87
2022/09/04 10:26:18;;;;;;;4.22;3.83;;;27.70;99.90;;;;;;5098310;28;20063;-86
2022/09/04 10:29:19;;;;;;;6.57;4.53;;;25.80;99.90;;;;;;5097912;28;20483;-86
2022/09/04 10:31:53;;;;;;;7.65;5.32;;;25.00;99.90;;;;;;5091033;28;20476;-86
2022/09/04 10:34:46;;;;;;;7.57;6.15;;;24.50;99.90;;;;;;5105265;28;20446;-86
2022/09/04 10:37:49;;;;;;;6.38;4.93;;;24.20;99.90;;;;;;5088541;28;20073;-87
2022/09/04 10:40:37;;;;;;;7.03;4.95;;;23.80;99.90;;;;;;5099587;28;20027;-87
2022/09/04 10:43:28;;;;;;;8.18;4.15;;;23.30;99.90;;;;;;5079809;28;20115;-87
2022/09/04 10:46:08;;;;;;;6.90;3.90;;;23.30;99.90;;;;;;5105340;28;20486;-87
2022/09/04 10:49:10;;;;;;;6.45;3.35;;;24.40;99.90;;;;;;5103716;28;20044;-87
2022/09/04 10:52:04;;;;;;;7.05;4.35;;;25.40;99.90;;;;;;5094834;28;20032;-87
2022/09/04 10:54:57;;;;;;;4.40;3.63;;;26.40;99.90;;;;;;5083987;28;20201;-86
2022/09/04 10:57:44;;;;;;;6.80;3.08;;;25.80;99.90;;;;;;5102343;28;20367;-87
2022/09/04 11:00:18;;;;;;;7.15;3.22;;;26.20;99.90;;;;;;5095401;28;20066;-87
2022/09/04 11:02:56;;;;;;;5.07;3.20;;;26.40;99.90;;;;;;5074521;28;20110;-87
2022/09/04 11:06:01;;;;;;;4.97;3.03;;;25.80;99.90;;;;;;5088059;28;20032;-87
2022/09/04 11:08:44;;;;;;;4.47;2.70;;;26.60;99.90;;;;;;5091834;28;20430;-87
2022/09/04 11:11:23;;;;;;;5.20;3.22;;;27.10;99.90;;;;;;5093622;28;20068;-87
2022/09/04 11:13:55;;;;;;;6.00;3.42;;;27.20;99.90;;;;;;5071070;28;20163;-87
2022/09/04 11:16:36;;;;;;;3.83;2.83;;;26.50;99.90;;;;;;5091679;28;20479;-87
2022/09/04 11:19:27;;;;;;;5.20;3.13;;;25.60;99.90;;;;;;5070310;28;20059;-86
2022/09/04 11:22:14;;;;;;;4.15;2.60;;;24.70;99.90;;;;;;5073239;28;20040;-87
2022/09/04 11:25:09;;;;;;;3.28;2.53;;;23.90;99.90;;;;;;5063457;28;20131;-86
2022/09/04 11:27:48;;;;;;;4.65;3.00;;;23.50;99.90;;;;;;5090738;28;20024;-87
2022/09/04 11:30:19;;;;;;;3.65;2.92;;;23.20;99.90;;;;;;5092707;28;20070;-87
2022/09/04 11:33:15;;;;;;;3.75;2.78;;;22.80;99.90;;;;;;5093813;28;20030;-88
2022/09/04 11:36:07;;;;;;;6.50;3.22;;;22.70;99.90;;;;;;5069936;28;20046;-85
2022/09/04 11:39:10;;;;;;;3.92;3.00;;;22.40;99.90;;;;;;5090810;28;20032;-86
2022/09/04 11:42:09;;;;;;;4.45;3.00;;;22.20;99.90;;;;;;5071642;28;20074;-86
2022/09/04 11:44:59;;;;;;;4.38;2.65;;;21.90;99.90;;;;;;5089998;28;20032;-86
2022/09/04 11:47:40;;;;;;;3.83;2.50;;;23.10;99.90;;;;;;5068171;28;20451;-86
2022/09/04 11:50:21;;;;;;;6.50;2.60;;;24.80;99.90;;;;;;5085570;28;20055;-88
2022/09/04 11:52:50;;;;;;;2.92;2.17;;;25.70;99.90;;;;;;5076346;28;20028;-87
2022/09/04 11:55:38;;;;;;;3.03;2.28;;;26.30;99.90;;;;;;5067564;28;20056;-87
2022/09/04 11:58:29;;;;;;;4.15;1.90;;;26.40;99.90;;;;;;5092820;28;20110;-87
2022/09/04 12:01:32;;;;;;;4.15;2.03;;;26.40;99.90;;;;;;5073504;28;20434;-87
2022/09/04 12:04:13;;;;;;;4.28;2.22;;;26.30;99.90;;;;;;5077210;28;20040;-87
2022/09/04 12:07:12;;;;;;;2.65;2.13;;;26.30;99.90;;;;;;5091776;28;20107;-86
2022/09/04 12:09:50;;;;;;;10.70;3.00;;;26.50;99.90;;;;;;5077220;28;20471;-87
2022/09/04 12:12:25;;;;;;;4.18;2.47;;;26.40;99.90;;;;;;5091084;28;20464;-87
2022/09/04 12:15:02;;;;;;;4.32;2.70;;;26.30;99.90;;;;;;5083737;28;20066;-87
2022/09/04 12:17:46;;;;;;;4.57;2.65;;;26.50;99.90;;;;;;5076319;28;20097;-87
2022/09/04 12:20:38;;;;;;;3.75;2.70;;;27.00;99.90;;;;;;5074324;28;20027;-88
2022/09/04 12:23:16;;;;;;;4.32;2.60;;;27.30;99.90;;;;;;5069233;28;20117;-88
2022/09/04 12:26:00;;;;;;;3.63;2.50;;;26.80;99.90;;;;;;5073789;28;20028;-87
2022/09/04 12:32:24;;;;;;;4.00;1.98;;;27.20;99.90;;;;;;5090207;28;20085;-87
2022/09/04 12:35:32;;;;;;;3.17;2.35;;;27.40;99.90;;;;;;5074088;28;20056;-87
2022/09/04 12:38:24;;;;;;;4.43;2.75;;;27.00;99.90;;;;;;5080858;28;20028;-87
2022/09/04 12:41:07;;;;;;;2.80;2.20;;;25.90;99.90;;;;;;5072162;28;20058;-87
2022/09/04 12:44:10;;;;;;;3.95;2.70;;;25.60;99.90;;;;;;5081301;28;20042;-86
2022/09/04 12:46:55;;;;;;;5.05;2.72;;;26.10;99.90;;;;;;5071932;28;20064;-87
2022/09/04 12:49:56;;;;;;;3.33;2.22;;;25.90;99.90;;;;;;5087137;28;20198;-85
2022/09/04 12:52:22;;;;;;;;;;;25.20;99.90;;;;;;5072260;28;20371;-87
2022/09/04 12:55:09;;;;;;;2.65;2.35;;;25.40;99.90;;;;;;5073956;28;19915;-87
2022/09/04 12:57:54;;;;;;;4.28;2.55;;;25.50;99.90;;;;;;5074008;28;20042;-87
2022/09/04 13:00:25;;;;;;;3.38;2.20;;;25.80;99.90;;;;;;5090489;28;20039;-86
2022/09/04 13:03:06;;;;;;;3.72;1.73;;;26.20;99.90;;;;;;5073945;28;20126;-87
2022/09/04 13:05:54;;;;;;;;;;;26.50;99.90;;;;;;5088977;28;20384;-86
2022/09/04 13:08:42;;;;;;;3.63;2.03;;;26.40;99.90;;;;;;5068078;28;19923;-87
2022/09/04 13:11:26;;;;;;;5.18;1.90;;;26.30;99.90;;;;;;5077664;28;22518;-87
2022/09/04 13:14:04;;;;;;;7.82;1.95;;;25.70;99.90;;;;;;5100208;28;20086;-87
2022/09/04 13:17:11;;;;;;;2.10;1.88;;;25.00;99.90;;;;;;5067502;28;20039;-87
2022/09/04 13:19:59;;;;;;;4.15;1.88;;;25.10;99.90;;;;;;5006795;28;20033;-87
2022/09/04 13:23:07;;;;;;;5.18;3.05;;;26.20;99.90;;;;;;5081745;28;20044;-88
2022/09/04 13:26:10;;;;;;;2.03;1.50;;;26.80;99.40;;;;;;5057858;28;20498;-88
2022/09/04 13:29:07;;;;;;;3.95;1.70;;;27.40;98.90;;;;;;5061252;28;20042;-87
2022/09/04 13:31:38;;;;;;;4.13;1.30;;;28.00;98.40;;;;;;5064823;28;20051;-88
2022/09/04 13:34:36;;;;;;;2.58;1.90;;;28.10;96.90;;;;;;5065959;28;20032;-87
2022/09/04 13:37:22;;;;;;;4.07;2.08;;;27.70;96.60;;;;;;5065155;28;20498;-88
2022/09/04 13:40:03;;;;;;;2.90;1.65;;;26.70;97.80;;;;;;5067585;28;20487;-87
2022/09/04 13:42:32;;;;;;;;;;;26.30;98.90;;;;;;5101718;28;20059;-87
2022/09/04 13:45:22;;;;;;;2.30;1.65;;;26.00;99.30;;;;;;5057716;28;19934;-86
2022/09/04 13:47:59;;;;;;;3.80;1.83;;;25.50;99.40;;;;;;5070489;28;20387;-87
2022/09/04 13:50:36;;;;;;;3.28;1.50;;;25.00;99.90;;;;;;5068952;28;20029;-88
2022/09/04 13:53:19;;;;;;;2.88;1.90;;;24.50;99.90;;;;;;5068942;28;20460;-87
2022/09/04 13:55:53;;;;;;;2.28;1.70;;;24.20;99.90;;;;;;5061429;28;20070;-87
2022/09/04 13:58:39;;;;;;;2.10;1.67;;;24.10;99.90;;;;;;5066896;28;20040;-87
2022/09/04 14:01:12;;;;;;;3.65;2.10;;;24.10;99.90;;;;;;5073635;28;20085;-87
2022/09/04 14:03:50;;;;;;;2.58;2.03;;;23.90;99.90;;;;;;5066498;28;20024;-87
2022/09/04 14:22:07;;;;;;;3.50;1.80;;;24.20;99.90;;;;;;5070283;28;20035;-87
2022/09/04 14:24:58;;;;;;;2.22;1.60;;;24.50;99.90;;;;;;5036020;28;20794;-86
2022/09/04 14:27:38;;;;;;;;;;;24.60;99.90;;;;;;5016821;28;20559;-87
2022/09/04 14:37:31;;;;;;;2.67;2.03;;;24.40;98.90;;;;;;5075541;28;20049;-86
2022/09/04 14:45:08;;;;;;;1.90;1.70;;;24.20;98.80;;;;;;5049846;28;20039;-86
2022/09/04 14:48:08;;;;;;;3.17;1.60;;;24.40;97.00;;;;;;4953751;28;20031;-87
2022/09/04 14:51:24;;;;;;;1.90;1.45;;;24.60;97.30;;;;;;5036098;28;20049;-85
2022/09/04 14:53:54;;;;;;;3.70;1.55;;;24.80;98.00;;;;;;5038940;28;20451;-86
2022/09/04 14:56:20;;;;;;;2.17;1.73;;;24.70;97.60;;;;;;5038464;28;20762;-86
2022/09/04 14:58:58;;;;;;;4.28;1.80;;;24.50;96.70;;;;;;5051235;28;20055;-86
2022/09/04 15:01:26;;;;;;;2.60;1.60;;;24.40;97.30;;;;;;5017413;28;20029;-85
2022/09/04 15:08:11;;;;;;;2.63;1.67;;;24.20;95.60;;;;;;5053188;28;20032;-86
2022/09/04 15:10:49;;;;;;;1.50;1.38;;;24.10;97.90;;;;;;5036239;28;20129;-84
2022/09/04 15:13:36;;;;;;;2.05;1.60;;;24.00;97.80;;;;;;5050741;28;20029;-84
2022/09/04 15:16:36;;;;;;;5.60;1.70;;;23.90;98.30;;;;;;5029384;28;20037;-86
2022/09/04 15:19:10;;;;;;;3.05;1.88;;;23.90;98.00;;;;;;5030013;28;20044;-87
2022/09/04 15:22:07;;;;;;;6.20;2.17;;;24.00;98.00;;;;;;5014659;28;20298;-86
2022/09/04 15:25:00;;;;;;;3.70;1.90;;;24.10;97.20;;;;;;5036807;28;20491;-87
2022/09/04 15:27:31;;;;;;;3.10;1.63;;;24.10;98.20;;;;;;5049106;28;20673;-86
2022/09/04 15:30:20;;;;;;;5.72;1.67;;;24.10;98.20;;;;;;5038906;28;20039;-86
2022/09/04 15:32:48;;;;;;;2.40;1.50;;;24.10;97.90;;;;;;5034369;28;20137;-87
2022/09/04 15:35:30;;;;;;;5.50;1.85;;;24.10;97.90;;;;;;5051671;28;20059;-87
2022/09/04 15:38:24;;;;;;;4.20;1.48;;;24.20;97.80;;;;;;5042960;28;20029;-87
2022/09/04 15:41:10;;;;;;;1.67;1.58;;;24.30;97.70;;;;;;5051003;28;20079;-88
2022/09/04 15:43:44;;;;;;;2.95;1.58;;;24.80;95.40;;;;;;5035219;28;20726;-87
2022/09/04 15:46:42;;;;;;;5.05;1.60;;;24.80;94.20;;;;;;5037542;28;20496;-87
2022/09/04 15:49:28;;;;;;;2.92;1.65;;;24.60;95.30;;;;;;5049877;28;20043;-86
2022/09/04 15:52:30;;;;;;;3.08;1.75;;;25.00;95.10;;;;;;5053201;28;20399;-88
2022/09/04 15:55:30;;;;;;;2.60;1.67;;;25.70;93.30;;;;;;5041047;28;20033;-87